ワシントン/ダレス の空港の天気 - METARとTAF

ワシントン・ダレス国際空港 ( KIAD / IAD ) - アメリカ バージニア州ダレス
飛行場実況気象(Metar)
観測時間10/16 03:52 EDT (10/16 07:52 UTC)
風向・風速静穏 0m/s
視程10km以上
天気現象
全天を覆う雲 雲底高度 240m
気温13.9℃
湿度74%
気圧1013.3hPa
METARKIAD 160752Z 00000KT 10SM OVC008 14/09 A2993 RMK AO2 SLP133 T01390094
過去の天気等 Google飛行場航空写真 Wunderground天気予報

過去48時間のMETAR

飛行場予報(TAF)
発表時間: 10/16 01:29 EDT (10/16 05:29 UTC)
予報対象時間: 16日2時 EDT ~ 17日8時 EDT
風向・風速南南東 3m/s
視程10km以上
全天の4割程度の雲 雲底高度 240m
全天の8割程度の雲 雲底高度 610m
16日3時 EDT から
風向・風速南南東 3m/s
視程10km以上
全天の8割程度の雲 雲底高度 240m
全天を覆う雲 雲底高度 610m
16日8時 EDT から
風向・風速南南東 3m/s
視程8050m
天気現象弱い雨
全天を覆う雲 雲底高度 610m
16日11時 EDT から
風向・風速南 4m/s
視程3220m
天気現象
全天を覆う雲 雲底高度 1070m
16日16時 EDT から
風向・風速西北西 5m/s
視程10km以上
全天の8割程度の雲 雲底高度 1070m
16日19時 EDT から
風向・風速西北西 8m/s 瞬間風速 16m/s
視程10km以上
全天の4割程度の雲 雲底高度 1520m
17日5時 EDT から
風向・風速西 6m/s 瞬間風速 10m/s
視程10km以上
全天の4割程度の雲 雲底高度 2440m
KIAD 160529Z 1606/1712 16005KT P6SM SCT008 BKN020
FM160700 16005KT P6SM BKN008 OVC020
FM161200 16006KT 5SM -RA OVC020
FM161500 18008KT 2SM RA OVC035
FM162000 30009KT P6SM BKN035
FM162300 30015G32KT P6SM SCT050
FM170900 27012G20KT P6SM SCT080